Time;durP1;ratioP1;P1;durP2;ratioP2;P2;SDS_P1;SDS_P2;PMS_P1;PMS_P2;Temp;Humidity;BMP_temperature;BMP_pressure;BME280_temperature;BME280_humidity;BME280_pressure;Samples;Min_cycle;Max_cycle;Signal;HPM_P1;HPM_P2
2023/03/01 00:01:05;;;;;;;31.70;18.70;;;3.80;99.90;;;;;;4651899;30;20186;-74
2023/03/01 00:03:31;;;;;;;29.15;18.13;;;3.80;99.90;;;;;;4648667;30;20652;-75
2023/03/01 00:05:58;;;;;;;28.17;18.55;;;3.80;99.90;;;;;;4645990;30;20222;-74
2023/03/01 00:08:24;;;;;;;35.53;20.25;;;3.80;99.90;;;;;;4655772;30;20715;-74
2023/03/01 00:11:05;;;;;;;30.55;19.33;;;3.80;99.90;;;;;;4646322;30;20194;-75
2023/03/01 00:13:31;;;;;;;33.30;19.30;;;3.80;99.90;;;;;;4645659;30;20348;-74
2023/03/01 00:15:57;;;;;;;30.90;19.75;;;3.80;99.90;;;;;;4647828;30;20198;-75
2023/03/01 00:18:23;;;;;;;32.05;20.00;;;3.80;99.90;;;;;;4651299;30;20663;-74
2023/03/01 00:20:54;;;;;;;36.72;19.35;;;3.80;99.90;;;;;;4649081;30;20194;-75
2023/03/01 00:23:20;;;;;;;32.50;20.38;;;3.80;99.90;;;;;;4646308;30;20182;-74
2023/03/01 00:25:46;;;;;;;35.75;21.45;;;3.80;99.90;;;;;;4645628;30;20233;-74
2023/03/01 00:28:11;;;;;;;37.22;21.23;;;3.80;99.90;;;;;;4646658;30;20304;-74
2023/03/01 00:30:37;;;;;;;37.55;21.80;;;3.80;99.90;;;;;;4647818;30;20190;-74
2023/03/01 00:33:03;;;;;;;40.10;22.20;;;3.80;99.90;;;;;;4647287;30;20675;-74
2023/03/01 00:35:29;;;;;;;39.88;23.08;;;3.80;99.90;;;;;;4644943;30;20224;-75
2023/03/01 00:37:57;;;;;;;40.08;21.45;;;3.70;99.90;;;;;;4644972;30;20268;-74
2023/03/01 00:40:24;;;;;;;42.40;22.58;;;3.80;99.90;;;;;;4646285;30;20198;-75
2023/03/01 00:42:50;;;;;;;41.35;23.20;;;3.70;99.90;;;;;;4648083;30;20202;-74
2023/03/01 00:45:16;;;;;;;40.80;24.58;;;3.70;99.90;;;;;;4656113;30;20711;-74
2023/03/01 00:47:42;;;;;;;45.80;26.75;;;3.70;99.90;;;;;;4646607;30;20233;-76
2023/03/01 00:50:08;;;;;;;51.63;25.73;;;3.70;99.90;;;;;;4617807;30;1089889;-75
2023/03/01 00:52:34;;;;;;;42.85;24.27;;;3.70;99.90;;;;;;4660559;30;20205;-74
2023/03/01 00:55:00;;;;;;;42.38;25.52;;;3.70;99.90;;;;;;4665142;30;20205;-74
2023/03/01 00:57:26;;;;;;;46.00;25.75;;;3.70;99.90;;;;;;4650816;30;20225;-74
2023/03/01 00:59:52;;;;;;;54.20;26.98;;;3.70;99.90;;;;;;4649640;30;20664;-74
2023/03/01 01:02:19;;;;;;;43.55;26.02;;;3.70;99.90;;;;;;4651045;30;20194;-74
2023/03/01 01:04:45;;;;;;;47.58;26.63;;;3.70;99.90;;;;;;4655073;30;20698;-74
2023/03/01 01:07:11;;;;;;;48.42;27.10;;;3.70;99.90;;;;;;4664071;30;20220;-74
2023/03/01 01:09:37;;;;;;;41.60;24.23;;;3.60;99.90;;;;;;4661001;30;20208;-74
2023/03/01 01:12:03;;;;;;;37.03;23.35;;;3.60;99.90;;;;;;4649674;30;20194;-75
2023/03/01 01:14:30;;;;;;;40.28;23.27;;;3.50;99.90;;;;;;4648854;30;20558;-75
2023/03/01 01:16:56;;;;;;;46.50;25.40;;;3.50;99.90;;;;;;4648830;30;20202;-74
2023/03/01 01:19:23;;;;;;;42.83;25.48;;;3.50;99.90;;;;;;4656700;30;20604;-74
2023/03/01 01:21:49;;;;;;;46.95;25.25;;;3.40;99.90;;;;;;4650555;30;20216;-74
2023/03/01 01:24:16;;;;;;;38.00;23.42;;;3.40;99.90;;;;;;4664025;30;20375;-74
2023/03/01 01:26:42;;;;;;;42.10;23.88;;;3.50;99.90;;;;;;4666559;30;20197;-74
2023/03/01 01:29:08;;;;;;;42.85;23.08;;;3.40;99.90;;;;;;4649928;30;20254;-74
2023/03/01 01:31:36;;;;;;;44.40;23.92;;;3.50;99.90;;;;;;4636067;30;20206;-74
2023/03/01 01:34:05;;;;;;;41.22;22.02;;;3.50;99.90;;;;;;4657978;30;20205;-74
2023/03/01 01:36:32;;;;;;;41.50;23.42;;;3.40;99.90;;;;;;4648938;30;20209;-74
2023/03/01 01:38:58;;;;;;;39.25;22.27;;;3.40;99.90;;;;;;4646776;30;20644;-74
2023/03/01 01:41:26;;;;;;;40.40;22.40;;;3.30;99.90;;;;;;4649443;30;20213;-74
2023/03/01 01:44:21;;;;;;;36.15;22.58;;;3.30;99.90;;;;;;4651756;30;20197;-74
2023/03/01 01:47:12;;;;;;;39.70;22.38;;;3.20;99.90;;;;;;4650205;30;20682;-74
2023/03/01 01:49:45;;;;;;;39.90;22.60;;;3.20;99.90;;;;;;4652285;30;20190;-74
2023/03/01 01:52:26;;;;;;;42.97;22.67;;;3.20;99.90;;;;;;4652275;30;20276;-74
2023/03/01 01:55:06;;;;;;;39.28;23.27;;;3.20;99.90;;;;;;4668901;30;20704;-74
2023/03/01 01:57:40;;;;;;;41.28;21.42;;;3.20;99.90;;;;;;4660780;30;20272;-75
2023/03/01 02:00:16;;;;;;;39.50;21.50;;;3.10;99.90;;;;;;4651627;30;20189;-74
2023/03/01 02:02:45;;;;;;;37.35;21.38;;;3.00;99.90;;;;;;4636755;30;20197;-74
2023/03/01 02:05:32;;;;;;;39.28;23.65;;;3.10;99.90;;;;;;4652122;30;20230;-74
2023/03/01 02:07:59;;;;;;;41.03;22.35;;;3.00;99.90;;;;;;4664352;30;20651;-74
2023/03/01 02:10:26;;;;;;;39.20;22.33;;;3.00;99.90;;;;;;4672482;30;20194;-73
2023/03/01 02:12:53;;;;;;;38.97;22.50;;;3.00;99.90;;;;;;4665170;30;20193;-73
2023/03/01 02:15:20;;;;;;;42.40;22.85;;;2.90;99.90;;;;;;4651364;30;20202;-73
2023/03/01 02:17:46;;;;;;;37.80;22.73;;;2.90;99.90;;;;;;4649155;30;20722;-73
2023/03/01 02:20:59;;;;;;;39.53;21.80;;;2.90;99.90;;;;;;4648564;30;20248;-73
2023/03/01 02:23:25;;;;;;;35.55;20.40;;;2.80;99.90;;;;;;4651549;30;20537;-75
2023/03/01 02:26:03;;;;;;;43.60;21.23;;;2.80;99.90;;;;;;4662302;30;20681;-73
2023/03/01 02:28:37;;;;;;;42.22;22.35;;;2.80;99.90;;;;;;4665707;30;20200;-74
2023/03/01 02:33:51;;;;;;;38.15;21.58;;;2.80;99.90;;;;;;4665643;30;20200;-74
2023/03/01 02:36:24;;;;;;;37.55;21.02;;;2.70;99.90;;;;;;4650189;30;20252;-73
2023/03/01 02:38:53;;;;;;;41.85;21.88;;;2.70;99.90;;;;;;4665335;30;20288;-74
2023/03/01 02:41:20;;;;;;;40.83;22.50;;;2.70;99.90;;;;;;4650358;30;20220;-73
2023/03/01 02:43:47;;;;;;;36.17;20.52;;;2.70;99.90;;;;;;4657149;30;20738;-75
2023/03/01 02:46:22;;;;;;;38.85;21.67;;;2.60;99.90;;;;;;4652657;30;20221;-74
2023/03/01 02:48:52;;;;;;;33.63;21.67;;;2.60;99.90;;;;;;4665720;30;20272;-74
2023/03/01 02:52:05;;;;;;;38.75;21.45;;;2.50;99.90;;;;;;4664039;30;20244;-74
2023/03/01 02:54:39;;;;;;;36.92;19.90;;;2.50;99.90;;;;;;4611623;30;20213;-74
2023/03/01 02:57:05;;;;;;;37.13;20.92;;;2.50;99.90;;;;;;4666266;30;20271;-74
2023/03/01 02:59:39;;;;;;;43.20;21.20;;;2.40;99.90;;;;;;4650803;30;20197;-73
2023/03/01 03:02:21;;;;;;;35.40;20.63;;;2.40;99.90;;;;;;4652250;30;20269;-74
2023/03/01 03:04:47;;;;;;;37.13;20.52;;;2.40;99.90;;;;;;4649977;30;20331;-73
2023/03/01 03:07:14;;;;;;;38.35;20.55;;;2.40;99.90;;;;;;4669756;30;20287;-73
2023/03/01 03:09:40;;;;;;;37.47;21.50;;;2.30;99.90;;;;;;4665473;30;20266;-75
2023/03/01 03:12:05;;;;;;;36.03;20.52;;;2.40;99.90;;;;;;4681143;30;20338;-75
2023/03/01 03:14:34;;;;;;;38.83;21.75;;;2.30;99.90;;;;;;4664126;30;20719;-74
2023/03/01 03:17:00;;;;;;;35.58;20.35;;;2.30;99.90;;;;;;4658472;30;20214;-73
2023/03/01 03:19:26;;;;;;;38.20;19.77;;;2.20;99.90;;;;;;4640589;30;20259;-74
2023/03/01 03:21:52;;;;;;;34.85;20.55;;;2.20;99.90;;;;;;4636309;30;20213;-73
2023/03/01 03:24:18;;;;;;;40.13;20.33;;;2.20;99.90;;;;;;4637392;30;20606;-74
2023/03/01 03:26:43;;;;;;;33.85;19.25;;;2.20;99.90;;;;;;4656390;30;20309;-75
2023/03/01 03:29:09;;;;;;;33.15;18.65;;;2.10;99.90;;;;;;4672404;30;20616;-73
2023/03/01 03:31:35;;;;;;;37.08;20.63;;;2.10;99.90;;;;;;4637390;30;20220;-73
2023/03/01 03:34:00;;;;;;;38.55;22.13;;;2.10;99.90;;;;;;4669245;30;20233;-76
2023/03/01 03:36:26;;;;;;;35.10;19.50;;;2.10;99.90;;;;;;4664922;30;20197;-74
2023/03/01 03:38:52;;;;;;;37.67;22.13;;;2.10;99.90;;;;;;4662670;30;20276;-73
2023/03/01 03:41:18;;;;;;;35.15;19.85;;;2.10;99.90;;;;;;4677749;30;20256;-73
2023/03/01 03:43:44;;;;;;;34.00;19.98;;;2.10;99.90;;;;;;4672665;30;20987;-75
2023/03/01 03:46:11;;;;;;;31.52;18.48;;;2.10;99.90;;;;;;4656211;30;20292;-74
2023/03/01 03:48:43;;;;;;;35.78;19.33;;;2.00;99.90;;;;;;4669989;30;20201;-73
2023/03/01 03:51:16;;;;;;;35.20;19.38;;;2.00;99.90;;;;;;4655197;30;20240;-73
2023/03/01 03:53:43;;;;;;;35.13;19.65;;;2.00;99.90;;;;;;4671565;30;20205;-75
2023/03/01 03:56:09;;;;;;;34.53;19.92;;;2.00;99.90;;;;;;4665879;30;20272;-74
2023/03/01 03:58:35;;;;;;;34.28;20.67;;;1.90;99.90;;;;;;4665541;30;20205;-76
2023/03/01 04:01:01;;;;;;;35.38;19.77;;;2.00;99.90;;;;;;4665309;30;20185;-75
2023/03/01 04:03:28;;;;;;;33.80;19.50;;;1.90;99.90;;;;;;4671096;30;20192;-74
2023/03/01 04:05:57;;;;;;;37.17;18.83;;;1.90;99.90;;;;;;4672140;30;20221;-76
2023/03/01 04:08:23;;;;;;;35.22;19.63;;;1.90;99.90;;;;;;4672484;30;20204;-74
2023/03/01 04:10:52;;;;;;;33.25;17.27;;;1.90;99.90;;;;;;4663606;30;20205;-73
2023/03/01 04:13:21;;;;;;;36.22;18.63;;;1.90;99.90;;;;;;4668982;30;20208;-74
2023/03/01 04:15:50;;;;;;;32.42;17.55;;;1.90;99.90;;;;;;4666215;30;20221;-73
2023/03/01 04:18:17;;;;;;;30.48;17.77;;;1.90;99.90;;;;;;4662590;30;20206;-73
2023/03/01 04:20:44;;;;;;;29.00;15.00;;;1.80;99.90;;;;;;4659636;30;20201;-75
2023/03/01 04:23:21;;;;;;;26.92;15.98;;;1.70;99.90;;;;;;4653503;30;20204;-73
2023/03/01 04:25:56;;;;;;;27.23;16.05;;;1.70;99.90;;;;;;4667032;30;20229;-73
2023/03/01 04:28:34;;;;;;;26.92;16.23;;;1.60;99.90;;;;;;4664596;30;20279;-73
2023/03/01 04:31:18;;;;;;;32.40;15.70;;;1.40;99.90;;;;;;4665934;30;20196;-73
2023/03/01 04:33:53;;;;;;;25.02;13.68;;;1.30;99.90;;;;;;4662242;30;20659;-73
2023/03/01 04:36:29;;;;;;;22.83;13.82;;;1.20;99.90;;;;;;4664853;30;20209;-74
2023/03/01 04:38:56;;;;;;;18.65;11.40;;;1.20;99.90;;;;;;4668220;30;20655;-73
2023/03/01 04:41:24;;;;;;;21.80;11.40;;;1.20;99.90;;;;;;4664201;30;20208;-74
2023/03/01 04:43:50;;;;;;;18.63;11.07;;;1.10;99.90;;;;;;4662407;30;20205;-75
2023/03/01 04:46:18;;;;;;;17.75;10.57;;;1.00;99.90;;;;;;4663705;30;20715;-73
2023/03/01 04:48:46;;;;;;;17.17;10.32;;;1.00;99.90;;;;;;4669125;30;20659;-75
2023/03/01 04:51:15;;;;;;;17.83;9.85;;;0.90;99.90;;;;;;4651130;30;20236;-74
2023/03/01 04:53:42;;;;;;;16.17;10.20;;;0.80;99.90;;;;;;4670844;30;20213;-75
2023/03/01 04:56:08;;;;;;;14.82;10.07;;;0.80;99.90;;;;;;4665064;30;20298;-75
2023/03/01 04:58:34;;;;;;;15.75;9.57;;;0.70;99.90;;;;;;4664597;30;20210;-74
2023/03/01 05:01:00;;;;;;;15.18;9.10;;;0.60;99.90;;;;;;4663222;30;20201;-74
2023/03/01 05:03:26;;;;;;;17.38;8.82;;;0.60;99.90;;;;;;4669679;30;20227;-74
2023/03/01 05:05:52;;;;;;;11.93;8.15;;;0.50;99.90;;;;;;4673056;30;20236;-73
2023/03/01 05:08:18;;;;;;;12.50;7.60;;;0.50;99.90;;;;;;4666571;30;20260;-72
2023/03/01 05:10:51;;;;;;;16.77;7.32;;;0.50;99.90;;;;;;4663791;30;20189;-74
2023/03/01 05:13:20;;;;;;;12.98;7.53;;;0.40;99.90;;;;;;4647184;30;20208;-73
2023/03/01 05:15:59;;;;;;;10.98;7.68;;;0.40;99.90;;;;;;4641580;30;20209;-72
2023/03/01 05:18:26;;;;;;;15.25;8.07;;;0.30;99.90;;;;;;4668235;30;20261;-73
2023/03/01 05:20:55;;;;;;;14.95;7.60;;;0.30;99.90;;;;;;4667064;30;20229;-74
2023/03/01 05:23:22;;;;;;;12.40;8.25;;;0.30;99.90;;;;;;4662545;30;20198;-74
2023/03/01 05:25:49;;;;;;;12.63;8.05;;;0.30;99.90;;;;;;4656477;30;20228;-74
2023/03/01 05:28:15;;;;;;;14.63;9.02;;;0.30;99.90;;;;;;4658390;30;20647;-74
2023/03/01 05:30:41;;;;;;;14.85;8.68;;;0.40;99.90;;;;;;4656186;30;20194;-74
2023/03/01 05:33:12;;;;;;;13.25;8.20;;;0.40;99.90;;;;;;4656944;30;20343;-72
2023/03/01 05:35:40;;;;;;;14.65;8.60;;;0.40;99.90;;;;;;4655401;30;20197;-74
2023/03/01 05:38:07;;;;;;;15.05;8.63;;;0.40;99.90;;;;;;4662933;30;20609;-73
2023/03/01 05:40:33;;;;;;;17.13;9.00;;;0.30;99.90;;;;;;4664320;30;20212;-73
2023/03/01 05:42:59;;;;;;;16.55;9.88;;;0.30;99.90;;;;;;4663062;30;20256;-73
2023/03/01 05:45:26;;;;;;;14.90;9.38;;;0.30;99.90;;;;;;4664242;30;20229;-73
2023/03/01 05:47:54;;;;;;;15.02;9.10;;;0.30;99.90;;;;;;4668781;30;20205;-75
2023/03/01 05:50:22;;;;;;;14.20;9.50;;;0.30;99.90;;;;;;4655335;30;20239;-75
2023/03/01 05:52:51;;;;;;;15.73;9.40;;;0.30;99.90;;;;;;4640034;30;20197;-75
2023/03/01 05:55:18;;;;;;;16.55;9.50;;;0.30;99.90;;;;;;4658414;30;20194;-73
2023/03/01 05:57:44;;;;;;;15.32;9.63;;;0.30;99.90;;;;;;4654303;30;20293;-74
2023/03/01 06:00:13;;;;;;;17.17;9.85;;;0.30;99.90;;;;;;4658049;30;20208;-75
2023/03/01 06:02:39;;;;;;;19.48;9.75;;;0.40;99.90;;;;;;4667061;30;20283;-74
2023/03/01 06:05:07;;;;;;;16.80;10.07;;;0.40;99.90;;;;;;4681373;30;20223;-74
2023/03/01 06:07:33;;;;;;;18.63;10.27;;;0.40;99.90;;;;;;4668717;30;20198;-75
2023/03/01 06:09:58;;;;;;;16.90;10.10;;;0.40;99.90;;;;;;4675144;30;20556;-75
2023/03/01 06:12:24;;;;;;;18.80;11.25;;;0.40;99.90;;;;;;4665099;30;20571;-78
2023/03/01 06:14:50;;;;;;;18.52;11.40;;;0.40;99.90;;;;;;4664931;30;20263;-75
2023/03/01 06:17:15;;;;;;;24.65;10.35;;;0.50;99.90;;;;;;4664326;30;20201;-74
2023/03/01 06:19:41;;;;;;;18.23;10.90;;;0.40;99.90;;;;;;4672129;30;20664;-74
2023/03/01 06:22:08;;;;;;;17.92;10.43;;;0.40;99.90;;;;;;4671960;30;20224;-73
2023/03/01 06:24:34;;;;;;;17.63;10.50;;;0.40;99.90;;;;;;4674696;30;20239;-73
2023/03/01 06:26:59;;;;;;;18.92;10.50;;;0.40;99.90;;;;;;4665322;30;20205;-75
2023/03/01 06:29:25;;;;;;;18.15;11.07;;;0.40;99.90;;;;;;4630917;30;20197;-74
2023/03/01 06:31:51;;;;;;;18.52;11.13;;;0.40;99.90;;;;;;4665913;30;20667;-76
2023/03/01 06:34:17;;;;;;;18.85;11.35;;;0.40;99.90;;;;;;4673988;30;20566;-73
2023/03/01 06:36:42;;;;;;;22.77;11.65;;;0.40;99.90;;;;;;4666265;30;20189;-73
2023/03/01 06:39:08;;;;;;;19.20;10.65;;;0.40;99.90;;;;;;4667922;30;20194;-74
2023/03/01 06:41:34;;;;;;;21.45;11.35;;;0.40;99.90;;;;;;4665807;30;20208;-77
2023/03/01 06:44:00;;;;;;;21.17;12.27;;;0.40;99.90;;;;;;4664039;30;20189;-75
2023/03/01 06:46:26;;;;;;;22.55;12.63;;;0.40;99.90;;;;;;4662036;30;20253;-74
2023/03/01 06:48:52;;;;;;;27.58;15.23;;;0.50;99.90;;;;;;4663734;30;20216;-73
2023/03/01 06:51:17;;;;;;;23.63;12.32;;;0.50;99.90;;;;;;4665988;30;20232;-73
2023/03/01 06:53:43;;;;;;;21.73;13.57;;;0.40;99.90;;;;;;4678382;30;20291;-74
2023/03/01 06:56:09;;;;;;;24.73;13.88;;;0.60;99.90;;;;;;4665741;30;20206;-73
2023/03/01 06:58:34;;;;;;;28.13;15.02;;;0.50;99.90;;;;;;4672936;30;20204;-73
2023/03/01 07:01:04;;;;;;;29.25;15.40;;;0.50;99.90;;;;;;4668055;30;20221;-73
2023/03/01 07:03:30;;;;;;;27.33;14.88;;;0.50;99.90;;;;;;4672577;30;20412;-74
2023/03/01 07:05:56;;;;;;;29.30;15.18;;;0.50;99.90;;;;;;4663317;30;20687;-73
2023/03/01 07:08:21;;;;;;;26.77;14.80;;;0.60;99.90;;;;;;4656221;30;20260;-77
2023/03/01 07:10:47;;;;;;;31.73;15.95;;;0.70;99.90;;;;;;4665010;30;20244;-74
2023/03/01 07:13:13;;;;;;;31.10;16.17;;;0.60;99.90;;;;;;4669434;30;20209;-73
2023/03/01 07:15:40;;;;;;;29.73;17.98;;;0.70;99.90;;;;;;4678404;30;20269;-73
2023/03/01 07:18:06;;;;;;;33.65;18.60;;;0.80;99.90;;;;;;4669356;30;20219;-77
2023/03/01 07:20:31;;;;;;;32.47;16.25;;;0.90;99.90;;;;;;4661960;30;20229;-74
2023/03/01 07:22:58;;;;;;;33.95;18.05;;;1.00;99.90;;;;;;4661323;30;20228;-73
2023/03/01 07:25:24;;;;;;;34.20;16.10;;;1.10;99.90;;;;;;4664887;30;20257;-74
2023/03/01 07:27:53;;;;;;;30.10;16.50;;;1.20;99.90;;;;;;4657806;30;20225;-74
2023/03/01 07:30:20;;;;;;;28.58;16.08;;;1.30;99.90;;;;;;4658369;30;20201;-74
2023/03/01 07:32:46;;;;;;;31.77;17.83;;;1.50;99.90;;;;;;4668700;30;20300;-75
2023/03/01 07:35:12;;;;;;;31.42;17.88;;;1.60;99.90;;;;;;4662784;30;20264;-73
2023/03/01 07:37:38;;;;;;;31.15;17.33;;;1.80;99.90;;;;;;4648766;30;20205;-74
2023/03/01 07:40:04;;;;;;;32.28;18.75;;;1.90;99.90;;;;;;4664857;30;20209;-73
2023/03/01 07:42:30;;;;;;;33.65;20.63;;;2.10;99.90;;;;;;4668465;30;20732;-74
2023/03/01 07:44:55;;;;;;;35.90;18.48;;;2.30;99.90;;;;;;4672567;30;20344;-75
2023/03/01 07:47:21;;;;;;;33.08;19.35;;;2.30;99.90;;;;;;4664325;30;20265;-77
2023/03/01 07:49:47;;;;;;;33.75;18.60;;;2.50;99.90;;;;;;4655368;30;20237;-74
2023/03/01 07:52:13;;;;;;;33.63;19.52;;;2.60;99.90;;;;;;4665801;30;20225;-73
2023/03/01 07:54:38;;;;;;;35.53;20.20;;;2.70;99.90;;;;;;4649574;30;20210;-72
2023/03/01 07:57:04;;;;;;;38.88;21.38;;;2.80;99.90;;;;;;4679165;30;20630;-74
2023/03/01 07:59:31;;;;;;;39.55;21.67;;;2.90;99.90;;;;;;4664121;30;20273;-73
2023/03/01 08:01:57;;;;;;;46.90;26.15;;;3.10;99.90;;;;;;4666699;30;20233;-81
2023/03/01 08:04:24;;;;;;;52.47;28.35;;;3.20;99.90;;;;;;4664950;30;20216;-74
2023/03/01 08:06:51;;;;;;;51.08;27.15;;;3.50;99.90;;;;;;4670037;30;20750;-76
2023/03/01 08:09:16;;;;;;;51.17;26.98;;;3.80;99.90;;;;;;4631180;30;20209;-76
2023/03/01 08:11:42;;;;;;;44.22;26.52;;;4.10;99.90;;;;;;4663095;30;20209;-74
2023/03/01 08:14:08;;;;;;;43.85;24.52;;;4.30;99.90;;;;;;4664446;30;20201;-79
2023/03/01 08:16:35;;;;;;;48.45;28.33;;;4.60;99.90;;;;;;4666532;30;20227;-72
2023/03/01 08:19:05;;;;;;;56.03;28.02;;;4.80;99.90;;;;;;4673954;30;20205;-73
2023/03/01 08:21:31;;;;;;;47.40;27.73;;;5.00;99.90;;;;;;4678333;30;20209;-73
2023/03/01 08:23:56;;;;;;;52.00;27.63;;;5.20;99.90;;;;;;4679169;30;20201;-73
2023/03/01 08:26:22;;;;;;;54.88;29.27;;;5.40;99.90;;;;;;4655673;30;20221;-73
2023/03/01 08:28:49;;;;;;;51.63;27.15;;;5.70;99.90;;;;;;4669571;30;20194;-74
2023/03/01 08:31:24;;;;;;;48.22;27.00;;;6.00;99.90;;;;;;4664930;30;20642;-74
2023/03/01 08:33:55;;;;;;;52.45;28.85;;;6.40;99.90;;;;;;4662890;30;20200;-74
2023/03/01 08:36:26;;;;;;;44.92;27.02;;;6.70;99.90;;;;;;4664780;30;20182;-79
2023/03/01 08:38:52;;;;;;;49.85;27.85;;;7.00;99.90;;;;;;4644351;30;20205;-74
2023/03/01 08:41:19;;;;;;;52.95;28.65;;;7.20;99.90;;;;;;4663968;30;20562;-75
2023/03/01 08:43:44;;;;;;;46.58;28.10;;;7.50;99.90;;;;;;4670308;30;20192;-76
2023/03/01 08:46:11;;;;;;;51.40;30.08;;;7.70;99.90;;;;;;4664088;30;20229;-74
2023/03/01 08:48:37;;;;;;;54.63;29.10;;;7.90;99.90;;;;;;4670969;30;20201;-74
2023/03/01 08:51:15;;;;;;;46.38;29.17;;;8.10;99.90;;;;;;4672571;30;20360;-74
2023/03/01 08:53:41;;;;;;;46.70;28.70;;;8.20;99.90;;;;;;4656845;30;20262;-75
2023/03/01 08:56:08;;;;;;;43.55;28.50;;;8.40;99.90;;;;;;4624261;30;20213;-74
2023/03/01 08:58:33;;;;;;;42.38;27.45;;;8.70;99.90;;;;;;4663062;30;20289;-74
2023/03/01 09:01:00;;;;;;;41.22;27.00;;;8.80;99.90;;;;;;4654081;30;20288;-77
2023/03/01 09:03:26;;;;;;;40.78;27.40;;;9.00;99.90;;;;;;4668345;30;20196;-74
2023/03/01 09:05:53;;;;;;;42.33;27.27;;;9.10;99.90;;;;;;4671492;30;20751;-74
2023/03/01 09:08:19;;;;;;;41.70;27.02;;;9.20;99.90;;;;;;4672523;30;20633;-74
2023/03/01 09:10:45;;;;;;;50.17;30.23;;;9.30;99.90;;;;;;4650738;30;20205;-74
2023/03/01 09:13:12;;;;;;;48.10;27.88;;;9.30;99.90;;;;;;4662431;30;20205;-74
2023/03/01 09:15:38;;;;;;;43.35;28.17;;;9.40;99.90;;;;;;4663281;30;20197;-74
2023/03/01 09:18:04;;;;;;;43.65;27.23;;;9.60;99.90;;;;;;4666175;30;20197;-74
2023/03/01 09:20:31;;;;;;;46.10;28.05;;;9.60;99.90;;;;;;4678040;30;20254;-74
2023/03/01 09:22:58;;;;;;;41.35;26.63;;;9.60;99.90;;;;;;4666670;30;20189;-74
2023/03/01 09:25:24;;;;;;;38.88;26.30;;;9.70;99.90;;;;;;4666672;30;20348;-74
2023/03/01 09:27:54;;;;;;;39.80;26.10;;;9.90;99.90;;;;;;4665359;30;20211;-74
2023/03/01 09:30:20;;;;;;;45.55;27.75;;;10.10;99.90;;;;;;4632140;30;20198;-74
2023/03/01 09:32:46;;;;;;;53.40;31.98;;;10.40;99.90;;;;;;4666435;30;20201;-73
2023/03/01 09:35:12;;;;;;;44.95;29.38;;;10.70;99.90;;;;;;4639658;30;20202;-72
2023/03/01 09:37:42;;;;;;;40.33;24.85;;;10.80;99.90;;;;;;4667353;30;20676;-73
2023/03/01 09:40:21;;;;;;;34.10;22.55;;;11.00;99.90;;;;;;4675397;30;20208;-72
2023/03/01 09:42:54;;;;;;;38.88;24.00;;;11.10;99.90;;;;;;4680078;30;20201;-74
2023/03/01 09:45:44;;;;;;;35.53;23.25;;;11.20;99.90;;;;;;4666839;30;20217;-73
2023/03/01 09:48:23;;;;;;;34.70;21.45;;;11.20;99.90;;;;;;4664171;30;20255;-78
2023/03/01 09:50:50;;;;;;;32.45;22.10;;;11.30;99.90;;;;;;4650701;30;20247;-74
2023/03/01 09:53:19;;;;;;;34.08;21.02;;;11.30;99.90;;;;;;4655537;30;20225;-74
2023/03/01 09:55:59;;;;;;;30.45;20.95;;;11.50;99.90;;;;;;4666138;30;20587;-73
2023/03/01 09:58:25;;;;;;;31.23;21.98;;;11.70;99.90;;;;;;4664518;30;20192;-74
2023/03/01 10:00:51;;;;;;;31.75;20.33;;;11.80;99.90;;;;;;4678136;30;20204;-80
2023/03/01 10:03:51;;;;;;;30.98;20.08;;;11.90;99.90;;;;;;4664864;30;20226;-74
2023/03/01 10:06:25;;;;;;;28.20;19.52;;;12.00;99.40;;;;;;4601160;30;20759;-75
2023/03/01 10:08:58;;;;;;;33.10;22.23;;;12.00;98.90;;;;;;4660678;30;20241;-74
2023/03/01 10:11:28;;;;;;;29.33;19.27;;;12.10;98.40;;;;;;4679565;30;20605;-73
2023/03/01 10:14:24;;;;;;;30.38;20.08;;;12.10;98.00;;;;;;4673693;30;20330;-75
2023/03/01 10:16:58;;;;;;;29.58;21.45;;;12.10;97.30;;;;;;4642225;30;20558;-75
2023/03/01 10:19:51;;;;;;;30.48;20.83;;;12.10;96.90;;;;;;4659466;30;20690;-75
2023/03/01 10:22:28;;;;;;;31.70;21.98;;;12.30;97.10;;;;;;4660019;30;20327;-74
2023/03/01 10:24:59;;;;;;;33.05;20.88;;;12.60;96.80;;;;;;4660162;30;20766;-78
2023/03/01 10:27:47;;;;;;;27.73;19.52;;;12.80;96.30;;;;;;4654623;30;20402;-80
2023/03/01 10:30:29;;;;;;;25.05;16.83;;;13.00;95.40;;;;;;4666071;30;20410;-76
2023/03/01 10:32:57;;;;;;;26.23;16.73;;;13.20;94.80;;;;;;4672214;30;20193;-75
2023/03/01 10:35:29;;;;;;;26.73;17.88;;;13.40;93.60;;;;;;4665224;30;20197;-76
2023/03/01 10:38:02;;;;;;;25.88;18.52;;;13.40;92.50;;;;;;4659546;30;20225;-75
2023/03/01 10:40:28;;;;;;;24.90;17.80;;;13.40;91.90;;;;;;4649838;30;20202;-74
2023/03/01 10:42:58;;;;;;;25.50;18.40;;;13.40;91.40;;;;;;4658243;30;20211;-74
2023/03/01 10:45:37;;;;;;;24.77;18.45;;;13.40;91.20;;;;;;4665753;30;20229;-75
2023/03/01 10:48:23;;;;;;;22.92;17.65;;;13.30;90.90;;;;;;4664692;30;20201;-73
2023/03/01 10:51:05;;;;;;;25.33;17.90;;;13.20;91.10;;;;;;4665813;30;20267;-73
2023/03/01 10:53:41;;;;;;;27.70;18.83;;;13.20;91.20;;;;;;4660121;30;20209;-74
2023/03/01 10:56:13;;;;;;;27.42;19.10;;;13.30;91.70;;;;;;4672195;30;20240;-76
2023/03/01 10:59:00;;;;;;;24.55;17.80;;;13.30;92.20;;;;;;4659669;30;20186;-74
2023/03/01 11:01:29;;;;;;;26.90;18.00;;;13.50;91.90;;;;;;4673113;30;20189;-75
2023/03/01 11:04:07;;;;;;;24.67;18.23;;;13.30;91.50;;;;;;4669421;30;20578;-75
2023/03/01 11:06:38;;;;;;;23.88;17.58;;;13.20;91.90;;;;;;4648502;30;20214;-76
2023/03/01 11:09:22;;;;;;;24.38;17.58;;;13.20;92.00;;;;;;4656792;30;20236;-75
2023/03/01 11:11:56;;;;;;;23.90;17.98;;;13.20;91.40;;;;;;4665067;30;20197;-75
2023/03/01 11:14:24;;;;;;;23.75;18.05;;;13.20;91.80;;;;;;4665166;30;20198;-75
2023/03/01 11:17:03;;;;;;;25.58;16.50;;;13.20;91.70;;;;;;4664184;30;20284;-75
2023/03/01 11:19:29;;;;;;;23.85;18.15;;;13.20;91.40;;;;;;4649573;30;20189;-75
2023/03/01 11:22:17;;;;;;;26.67;19.15;;;13.30;91.50;;;;;;4681705;30;20287;-75
2023/03/01 11:24:46;;;;;;;23.98;18.73;;;13.30;91.30;;;;;;4680462;30;20188;-74
2023/03/01 11:27:26;;;;;;;23.33;17.25;;;13.30;91.40;;;;;;4682642;30;20196;-75
2023/03/01 11:30:18;;;;;;;22.20;16.25;;;13.30;91.30;;;;;;4669063;30;20197;-74
2023/03/01 11:33:07;;;;;;;24.42;15.98;;;13.30;91.10;;;;;;4655599;30;20206;-77
2023/03/01 11:35:37;;;;;;;20.08;13.90;;;13.30;91.20;;;;;;4660946;30;20201;-74
2023/03/01 11:38:22;;;;;;;18.80;12.32;;;13.50;90.60;;;;;;4665177;30;20284;-75
2023/03/01 11:41:07;;;;;;;19.45;15.13;;;13.60;86.70;;;;;;4670167;30;20202;-76
2023/03/01 11:44:11;;;;;;;18.10;13.23;;;13.60;87.90;;;;;;4655965;30;20189;-75
2023/03/01 11:46:50;;;;;;;17.50;12.82;;;13.80;89.60;;;;;;4590776;31;20241;-78
2023/03/01 11:49:49;;;;;;;19.55;14.07;;;14.00;87.20;;;;;;4633194;30;20573;-75
2023/03/01 11:52:36;;;;;;;17.83;13.77;;;14.00;85.00;;;;;;4657706;30;20210;-76
2023/03/01 11:55:08;;;;;;;18.88;13.68;;;13.90;85.80;;;;;;4648887;30;20210;-76
2023/03/01 11:57:46;;;;;;;16.80;13.30;;;14.00;85.30;;;;;;4649693;30;20206;-76
2023/03/01 12:00:50;;;;;;;17.55;12.35;;;14.10;84.70;;;;;;4649661;30;20668;-75
2023/03/01 12:03:15;;;;;;;20.52;15.07;;;14.10;83.60;;;;;;4639670;30;20211;-75
2023/03/01 12:06:03;;;;;;;19.38;13.82;;;14.10;82.70;;;;;;4662649;30;20217;-76
2023/03/01 12:08:35;;;;;;;16.58;12.98;;;14.20;82.50;;;;;;4660751;30;20208;-76
2023/03/01 12:11:22;;;;;;;17.80;12.23;;;14.30;82.10;;;;;;4681987;30;20211;-74
2023/03/01 12:13:51;;;;;;;13.30;10.40;;;14.40;79.80;;;;;;4679215;30;20227;-75
2023/03/01 12:16:32;;;;;;;16.90;12.55;;;14.50;76.60;;;;;;4680056;30;20184;-75
2023/03/01 12:19:04;;;;;;;18.05;13.77;;;14.30;74.30;;;;;;4658494;30;20533;-75
2023/03/01 12:21:53;;;;;;;17.30;12.68;;;14.20;73.40;;;;;;4672550;30;20275;-75
2023/03/01 12:24:38;;;;;;;19.23;13.55;;;14.00;73.00;;;;;;4676190;30;20208;-75
2023/03/01 12:27:38;;;;;;;18.17;13.75;;;13.90;72.60;;;;;;4676802;30;20280;-79
2023/03/01 12:30:21;;;;;;;20.83;14.85;;;13.70;71.80;;;;;;4657712;30;20295;-75
2023/03/01 12:32:46;;;;;;;21.50;13.85;;;13.50;72.70;;;;;;4649979;30;20216;-75
2023/03/01 12:35:21;;;;;;;21.60;15.00;;;13.40;72.00;;;;;;4679284;30;20254;-75
2023/03/01 12:38:04;;;;;;;23.50;14.65;;;13.20;72.40;;;;;;4664833;30;20205;-75
2023/03/01 12:40:38;;;;;;;20.98;13.77;;;13.10;73.20;;;;;;4654075;30;20201;-74
2023/03/01 12:43:10;;;;;;;21.13;14.55;;;13.10;72.70;;;;;;4667646;30;20220;-75
2023/03/01 12:45:47;;;;;;;21.67;14.70;;;13.10;73.40;;;;;;4666885;30;20223;-74
2023/03/01 12:48:38;;;;;;;23.42;15.30;;;13.10;74.30;;;;;;4660647;30;20271;-75
2023/03/01 12:51:13;;;;;;;22.83;15.20;;;13.00;73.90;;;;;;4658445;30;20260;-80
2023/03/01 12:53:47;;;;;;;19.33;14.70;;;13.00;74.50;;;;;;4670778;30;20184;-75
2023/03/01 12:56:17;;;;;;;21.55;14.90;;;12.80;74.40;;;;;;4654977;30;20207;-75